sensor_id;sensor_type;location;lat;lon;timestamp;pressure;altitude;pressure_sealevel;temperature;humidity
82311;BME280;72015;51.330;12.316;2024-02-14T00:00:33;100682.67;;;1.93;54.03
82311;BME280;72015;51.330;12.316;2024-02-14T00:04:55;100683.37;;;2.01;53.86
82311;BME280;72015;51.330;12.316;2024-02-14T00:09:17;100683.32;;;2.08;53.62
82311;BME280;72015;51.330;12.316;2024-02-14T00:13:39;100681.62;;;2.18;53.40
82311;BME280;72015;51.330;12.316;2024-02-14T00:18:01;100680.66;;;2.24;53.48
82311;BME280;72015;51.330;12.316;2024-02-14T00:22:23;100679.51;;;2.30;53.34
82311;BME280;72015;51.330;12.316;2024-02-14T00:26:45;100678.99;;;2.33;53.41
82311;BME280;72015;51.330;12.316;2024-02-14T00:31:07;100678.52;;;2.35;53.51
82311;BME280;72015;51.330;12.316;2024-02-14T00:35:29;100678.55;;;2.37;53.10
82311;BME280;72015;51.330;12.316;2024-02-14T00:39:51;100679.85;;;2.31;53.67
82311;BME280;72015;51.330;12.316;2024-02-14T00:44:13;100682.06;;;2.29;53.50
82311;BME280;72015;51.330;12.316;2024-02-14T00:48:35;100682.21;;;2.29;53.46
82311;BME280;72015;51.330;12.316;2024-02-14T00:52:57;100681.48;;;2.30;53.12
82311;BME280;72015;51.330;12.316;2024-02-14T00:57:19;100682.01;;;2.27;53.90
82311;BME280;72015;51.330;12.316;2024-02-14T01:01:41;100682.12;;;2.34;52.61
82311;BME280;72015;51.330;12.316;2024-02-14T01:06:03;100682.39;;;2.40;52.72
82311;BME280;72015;51.330;12.316;2024-02-14T01:10:25;100681.32;;;2.41;52.76
82311;BME280;72015;51.330;12.316;2024-02-14T01:14:47;100679.77;;;2.41;52.71
82311;BME280;72015;51.330;12.316;2024-02-14T01:19:09;100676.31;;;2.47;52.66
82311;BME280;72015;51.330;12.316;2024-02-14T01:23:31;100672.99;;;2.54;52.30
82311;BME280;72015;51.330;12.316;2024-02-14T01:27:53;100669.80;;;2.55;52.64
82311;BME280;72015;51.330;12.316;2024-02-14T01:32:15;100665.92;;;2.55;52.54
82311;BME280;72015;51.330;12.316;2024-02-14T01:36:37;100664.22;;;2.51;53.15
82311;BME280;72015;51.330;12.316;2024-02-14T01:41:01;100660.03;;;2.52;52.93
82311;BME280;72015;51.330;12.316;2024-02-14T01:45:21;100655.36;;;2.53;53.08
82311;BME280;72015;51.330;12.316;2024-02-14T01:49:43;100651.62;;;2.57;52.65
82311;BME280;72015;51.330;12.316;2024-02-14T01:54:05;100650.48;;;2.58;53.75
82311;BME280;72015;51.330;12.316;2024-02-14T01:58:28;100647.29;;;2.53;53.90
82311;BME280;72015;51.330;12.316;2024-02-14T02:02:49;100643.47;;;2.47;54.72
82311;BME280;72015;51.330;12.316;2024-02-14T02:07:11;100641.29;;;2.44;54.42
82311;BME280;72015;51.330;12.316;2024-02-14T02:15:55;100636.22;;;2.29;55.88
82311;BME280;72015;51.330;12.316;2024-02-14T02:20:17;100633.99;;;2.28;54.67
82311;BME280;72015;51.330;12.316;2024-02-14T02:24:39;100630.13;;;2.35;54.18
82311;BME280;72015;51.330;12.316;2024-02-14T02:29:01;100626.72;;;2.38;54.48
82311;BME280;72015;51.330;12.316;2024-02-14T02:33:23;100623.97;;;2.35;54.68
82311;BME280;72015;51.330;12.316;2024-02-14T02:37:45;100620.81;;;2.38;54.10
82311;BME280;72015;51.330;12.316;2024-02-14T02:42:07;100617.66;;;2.42;54.14
82311;BME280;72015;51.330;12.316;2024-02-14T02:46:29;100614.37;;;2.43;54.39
82311;BME280;72015;51.330;12.316;2024-02-14T02:50:51;100609.75;;;2.52;53.64
82311;BME280;72015;51.330;12.316;2024-02-14T02:55:13;100607.81;;;2.54;54.26
82311;BME280;72015;51.330;12.316;2024-02-14T02:59:35;100606.26;;;2.55;54.24
82311;BME280;72015;51.330;12.316;2024-02-14T03:03:57;100605.56;;;2.52;54.50
82311;BME280;72015;51.330;12.316;2024-02-14T03:08:19;100603.52;;;2.53;54.05
82311;BME280;72015;51.330;12.316;2024-02-14T03:12:41;100599.81;;;2.53;54.06
82311;BME280;72015;51.330;12.316;2024-02-14T03:17:03;100595.26;;;2.58;53.66
82311;BME280;72015;51.330;12.316;2024-02-14T03:21:25;100591.33;;;2.59;53.62
82311;BME280;72015;51.330;12.316;2024-02-14T03:25:47;100586.82;;;2.61;53.20
82311;BME280;72015;51.330;12.316;2024-02-14T03:30:09;100584.56;;;2.75;51.91
82311;BME280;72015;51.330;12.316;2024-02-14T03:34:31;100581.33;;;2.87;51.68
82311;BME280;72015;51.330;12.316;2024-02-14T03:38:53;100577.44;;;2.93;52.37
82311;BME280;72015;51.330;12.316;2024-02-14T03:43:18;100574.37;;;2.91;53.17
82311;BME280;72015;51.330;12.316;2024-02-14T03:47:37;100571.03;;;2.87;53.17
82311;BME280;72015;51.330;12.316;2024-02-14T03:51:59;100567.55;;;2.85;52.98
82311;BME280;72015;51.330;12.316;2024-02-14T03:56:21;100563.75;;;2.84;52.87
82311;BME280;72015;51.330;12.316;2024-02-14T04:00:43;100562.08;;;2.89;52.20
82311;BME280;72015;51.330;12.316;2024-02-14T04:05:08;100559.91;;;3.01;51.34
82311;BME280;72015;51.330;12.316;2024-02-14T04:09:27;100557.78;;;3.03;52.70
82311;BME280;72015;51.330;12.316;2024-02-14T04:13:49;100555.68;;;3.07;52.16
82311;BME280;72015;51.330;12.316;2024-02-14T04:18:11;100552.92;;;3.11;52.31
82311;BME280;72015;51.330;12.316;2024-02-14T04:22:33;100550.50;;;3.15;51.48
82311;BME280;72015;51.330;12.316;2024-02-14T04:26:55;100548.03;;;3.24;51.26
82311;BME280;72015;51.330;12.316;2024-02-14T04:31:17;100547.03;;;3.30;51.06
82311;BME280;72015;51.330;12.316;2024-02-14T04:35:39;100546.00;;;3.33;51.79
82311;BME280;72015;51.330;12.316;2024-02-14T04:40:02;100542.28;;;3.27;52.33
82311;BME280;72015;51.330;12.316;2024-02-14T04:44:23;100539.39;;;3.18;53.04
82311;BME280;72015;51.330;12.316;2024-02-14T04:48:45;100536.21;;;3.12;52.79
82311;BME280;72015;51.330;12.316;2024-02-14T04:53:07;100533.51;;;2.98;54.18
82311;BME280;72015;51.330;12.316;2024-02-14T04:57:29;100529.43;;;2.93;53.38
82311;BME280;72015;51.330;12.316;2024-02-14T05:01:51;100525.50;;;2.96;52.57
82311;BME280;72015;51.330;12.316;2024-02-14T05:06:13;100520.64;;;2.95;53.13
82311;BME280;72015;51.330;12.316;2024-02-14T05:10:35;100517.77;;;2.88;53.81
82311;BME280;72015;51.330;12.316;2024-02-14T05:14:57;100513.69;;;2.76;54.60
82311;BME280;72015;51.330;12.316;2024-02-14T05:19:19;100509.39;;;2.74;53.76
82311;BME280;72015;51.330;12.316;2024-02-14T05:23:41;100506.97;;;2.67;54.49
82311;BME280;72015;51.330;12.316;2024-02-14T05:28:04;100505.58;;;2.68;53.80
82311;BME280;72015;51.330;12.316;2024-02-14T05:32:25;100504.66;;;2.66;53.52
82311;BME280;72015;51.330;12.316;2024-02-14T05:36:47;100506.19;;;2.63;54.09
82311;BME280;72015;51.330;12.316;2024-02-14T05:41:09;100506.14;;;2.66;53.26
82311;BME280;72015;51.330;12.316;2024-02-14T05:45:31;100506.40;;;2.72;52.72
82311;BME280;72015;51.330;12.316;2024-02-14T05:49:53;100505.95;;;2.84;51.99
82311;BME280;72015;51.330;12.316;2024-02-14T05:54:15;100505.10;;;3.06;50.08
82311;BME280;72015;51.330;12.316;2024-02-14T05:58:45;100502.31;;;3.32;48.88
82311;BME280;72015;51.330;12.316;2024-02-14T06:03:07;100498.71;;;3.55;48.90
82311;BME280;72015;51.330;12.316;2024-02-14T06:07:29;100495.28;;;3.72;49.81
82311;BME280;72015;51.330;12.316;2024-02-14T06:11:51;100491.56;;;3.83;50.37
82311;BME280;72015;51.330;12.316;2024-02-14T06:16:13;100488.32;;;3.80;51.75
82311;BME280;72015;51.330;12.316;2024-02-14T06:20:35;100485.55;;;3.73;51.79
82311;BME280;72015;51.330;12.316;2024-02-14T06:24:57;100484.31;;;3.59;53.17
82311;BME280;72015;51.330;12.316;2024-02-14T06:29:19;100483.45;;;3.44;53.17
82311;BME280;72015;51.330;12.316;2024-02-14T06:33:41;100481.95;;;3.32;52.92
82311;BME280;72015;51.330;12.316;2024-02-14T06:38:03;100480.87;;;3.29;52.48
82311;BME280;72015;51.330;12.316;2024-02-14T06:42:25;100482.30;;;3.32;51.70
82311;BME280;72015;51.330;12.316;2024-02-14T06:46:47;100481.75;;;3.37;51.72
82311;BME280;72015;51.330;12.316;2024-02-14T06:51:09;100481.07;;;3.34;52.31
82311;BME280;72015;51.330;12.316;2024-02-14T06:55:31;100478.88;;;3.39;51.53
82311;BME280;72015;51.330;12.316;2024-02-14T06:59:53;100477.17;;;3.42;51.15
82311;BME280;72015;51.330;12.316;2024-02-14T07:04:15;100476.09;;;3.50;50.84
82311;BME280;72015;51.330;12.316;2024-02-14T07:08:37;100475.28;;;3.53;51.74
82311;BME280;72015;51.330;12.316;2024-02-14T07:12:59;100473.97;;;3.54;51.76
82311;BME280;72015;51.330;12.316;2024-02-14T07:17:21;100473.29;;;3.51;52.49
82311;BME280;72015;51.330;12.316;2024-02-14T07:21:43;100472.00;;;3.44;53.33
82311;BME280;72015;51.330;12.316;2024-02-14T07:26:05;100469.80;;;3.48;52.41
82311;BME280;72015;51.330;12.316;2024-02-14T07:30:27;100469.62;;;3.47;52.81
82311;BME280;72015;51.330;12.316;2024-02-14T07:34:49;100471.51;;;3.57;51.66
82311;BME280;72015;51.330;12.316;2024-02-14T07:39:11;100471.51;;;3.57;52.98
82311;BME280;72015;51.330;12.316;2024-02-14T07:43:33;100471.34;;;3.44;54.44
82311;BME280;72015;51.330;12.316;2024-02-14T07:47:55;100472.05;;;3.39;53.94
82311;BME280;72015;51.330;12.316;2024-02-14T07:52:17;100472.56;;;3.42;53.34
82311;BME280;72015;51.330;12.316;2024-02-14T07:56:39;100472.65;;;3.43;53.25
82311;BME280;72015;51.330;12.316;2024-02-14T08:01:01;100474.98;;;3.46;53.11
82311;BME280;72015;51.330;12.316;2024-02-14T08:05:23;100478.00;;;3.53;52.60
82311;BME280;72015;51.330;12.316;2024-02-14T08:09:45;100480.63;;;3.63;52.24
82311;BME280;72015;51.330;12.316;2024-02-14T08:14:07;100484.19;;;3.78;51.34
82311;BME280;72015;51.330;12.316;2024-02-14T08:18:29;100486.22;;;3.95;51.19
82311;BME280;72015;51.330;12.316;2024-02-14T08:22:51;100491.22;;;4.04;51.66
82311;BME280;72015;51.330;12.316;2024-02-14T08:27:13;100496.51;;;4.07;52.08
82311;BME280;72015;51.330;12.316;2024-02-14T08:31:35;100499.59;;;4.22;50.97
82311;BME280;72015;51.330;12.316;2024-02-14T08:35:57;100500.62;;;4.46;50.13
82311;BME280;72015;51.330;12.316;2024-02-14T08:40:19;100501.68;;;4.65;50.27
82311;BME280;72015;51.330;12.316;2024-02-14T08:44:41;100501.87;;;4.73;50.50
82311;BME280;72015;51.330;12.316;2024-02-14T08:49:03;100502.03;;;4.71;51.83
82311;BME280;72015;51.330;12.316;2024-02-14T08:53:25;100503.20;;;4.77;50.88
82311;BME280;72015;51.330;12.316;2024-02-14T08:57:47;100503.22;;;4.83;51.06
82311;BME280;72015;51.330;12.316;2024-02-14T09:02:09;100502.90;;;4.88;51.35
82311;BME280;72015;51.330;12.316;2024-02-14T09:06:31;100503.45;;;5.03;51.25
82311;BME280;72015;51.330;12.316;2024-02-14T09:10:53;100502.23;;;5.13;51.27
82311;BME280;72015;51.330;12.316;2024-02-14T09:15:15;100502.40;;;5.20;51.30
82311;BME280;72015;51.330;12.316;2024-02-14T09:19:37;100502.15;;;5.24;52.32
82311;BME280;72015;51.330;12.316;2024-02-14T09:23:59;100503.06;;;5.33;52.12
82311;BME280;72015;51.330;12.316;2024-02-14T09:28:21;100504.14;;;5.44;51.44
82311;BME280;72015;51.330;12.316;2024-02-14T09:32:43;100504.67;;;5.51;52.07
82311;BME280;72015;51.330;12.316;2024-02-14T09:37:05;100507.72;;;5.58;52.18
82311;BME280;72015;51.330;12.316;2024-02-14T09:45:50;100511.08;;;5.99;50.12
82311;BME280;72015;51.330;12.316;2024-02-14T09:50:11;100511.06;;;6.18;50.59
82311;BME280;72015;51.330;12.316;2024-02-14T09:54:33;100510.63;;;6.23;52.12
82311;BME280;72015;51.330;12.316;2024-02-14T09:58:55;100514.28;;;6.23;52.17
82311;BME280;72015;51.330;12.316;2024-02-14T10:03:17;100516.82;;;6.32;51.01
82311;BME280;72015;51.330;12.316;2024-02-14T10:07:39;100518.16;;;6.47;50.22
82311;BME280;72015;51.330;12.316;2024-02-14T10:12:01;100519.48;;;6.49;50.86
82311;BME280;72015;51.330;12.316;2024-02-14T10:16:23;100520.54;;;6.50;51.34
82311;BME280;72015;51.330;12.316;2024-02-14T10:25:07;100522.32;;;6.43;51.31
82311;BME280;72015;51.330;12.316;2024-02-14T10:29:29;100523.69;;;6.51;51.71
82311;BME280;72015;51.330;12.316;2024-02-14T10:33:52;100525.11;;;6.50;53.59
82311;BME280;72015;51.330;12.316;2024-02-14T10:38:13;100525.34;;;6.52;54.50
82311;BME280;72015;51.330;12.316;2024-02-14T10:42:35;100526.42;;;6.54;54.81
82311;BME280;72015;51.330;12.316;2024-02-14T10:46:57;100527.56;;;6.57;54.70
82311;BME280;72015;51.330;12.316;2024-02-14T10:51:19;100528.16;;;6.70;54.86
82311;BME280;72015;51.330;12.316;2024-02-14T10:55:41;100530.74;;;6.80;54.68
82311;BME280;72015;51.330;12.316;2024-02-14T11:00:05;100531.91;;;6.81;54.94
82311;BME280;72015;51.330;12.316;2024-02-14T11:04:25;100529.88;;;6.86;55.42
82311;BME280;72015;51.330;12.316;2024-02-14T11:13:09;100528.05;;;6.88;55.54
82311;BME280;72015;51.330;12.316;2024-02-14T11:17:31;100529.32;;;6.85;55.31
82311;BME280;72015;51.330;12.316;2024-02-14T11:21:53;100529.79;;;6.88;55.15
82311;BME280;72015;51.330;12.316;2024-02-14T11:26:15;100531.70;;;6.87;55.99
82311;BME280;72015;51.330;12.316;2024-02-14T11:30:39;100532.15;;;6.74;57.16
82311;BME280;72015;51.330;12.316;2024-02-14T11:34:59;100532.15;;;6.68;56.89
82311;BME280;72015;51.330;12.316;2024-02-14T11:39:21;100530.33;;;6.75;55.41
82311;BME280;72015;51.330;12.316;2024-02-14T11:43:50;100529.61;;;6.89;54.26
82311;BME280;72015;51.330;12.316;2024-02-14T11:48:05;100528.67;;;6.95;54.62
82311;BME280;72015;51.330;12.316;2024-02-14T11:52:27;100526.06;;;7.14;53.68
82311;BME280;72015;51.330;12.316;2024-02-14T11:56:49;100523.17;;;7.24;53.55
82311;BME280;72015;51.330;12.316;2024-02-14T12:01:11;100521.61;;;7.37;53.24
82311;BME280;72015;51.330;12.316;2024-02-14T12:05:33;100522.05;;;7.45;52.62
82311;BME280;72015;51.330;12.316;2024-02-14T12:09:55;100522.06;;;7.43;53.73
82311;BME280;72015;51.330;12.316;2024-02-14T12:14:17;100520.81;;;7.45;53.61
82311;BME280;72015;51.330;12.316;2024-02-14T12:18:39;100520.45;;;7.47;53.32
82311;BME280;72015;51.330;12.316;2024-02-14T12:23:01;100519.81;;;7.54;52.05
82311;BME280;72015;51.330;12.316;2024-02-14T12:27:23;100518.18;;;7.79;51.37
82311;BME280;72015;51.330;12.316;2024-02-14T12:31:45;100517.90;;;7.97;50.98
82311;BME280;72015;51.330;12.316;2024-02-14T12:36:07;100518.36;;;8.01;52.64
82311;BME280;72015;51.330;12.316;2024-02-14T12:40:29;100518.73;;;8.05;52.40
82311;BME280;72015;51.330;12.316;2024-02-14T12:44:51;100521.23;;;7.96;53.52
82311;BME280;72015;51.330;12.316;2024-02-14T12:49:13;100524.08;;;7.92;53.44
82311;BME280;72015;51.330;12.316;2024-02-14T12:53:35;100526.01;;;8.00;51.40
82311;BME280;72015;51.330;12.316;2024-02-14T12:57:57;100526.51;;;8.15;50.56
82311;BME280;72015;51.330;12.316;2024-02-14T13:02:19;100528.79;;;8.11;52.69
82311;BME280;72015;51.330;12.316;2024-02-14T13:06:41;100529.90;;;8.09;52.26
82311;BME280;72015;51.330;12.316;2024-02-14T13:11:03;100531.31;;;8.08;52.19
82311;BME280;72015;51.330;12.316;2024-02-14T13:15:25;100532.70;;;8.10;51.85
82311;BME280;72015;51.330;12.316;2024-02-14T13:19:47;100537.89;;;8.14;51.39
82311;BME280;72015;51.330;12.316;2024-02-14T13:24:09;100543.39;;;8.04;51.99
82311;BME280;72015;51.330;12.316;2024-02-14T13:28:31;100543.06;;;8.04;51.40
82311;BME280;72015;51.330;12.316;2024-02-14T13:32:53;100545.61;;;7.99;52.22
82311;BME280;72015;51.330;12.316;2024-02-14T13:37:15;100547.28;;;7.97;52.84
82311;BME280;72015;51.330;12.316;2024-02-14T13:41:37;100549.17;;;7.84;54.41
82311;BME280;72015;51.330;12.316;2024-02-14T13:45:59;100551.79;;;7.70;54.75
82311;BME280;72015;51.330;12.316;2024-02-14T13:50:21;100554.86;;;7.60;54.48
82311;BME280;72015;51.330;12.316;2024-02-14T13:54:43;100556.37;;;7.58;53.38
82311;BME280;72015;51.330;12.316;2024-02-14T13:59:05;100559.08;;;7.51;53.76
82311;BME280;72015;51.330;12.316;2024-02-14T14:03:27;100559.89;;;7.53;52.92
82311;BME280;72015;51.330;12.316;2024-02-14T14:07:49;100560.30;;;7.64;52.55
82311;BME280;72015;51.330;12.316;2024-02-14T14:12:11;100561.30;;;7.73;52.04
82311;BME280;72015;51.330;12.316;2024-02-14T14:16:33;100563.36;;;7.89;51.16
82311;BME280;72015;51.330;12.316;2024-02-14T14:20:55;100566.77;;;8.08;50.64
82311;BME280;72015;51.330;12.316;2024-02-14T14:25:17;100569.36;;;8.30;49.85
82311;BME280;72015;51.330;12.316;2024-02-14T14:29:39;100572.11;;;8.37;51.51
82311;BME280;72015;51.330;12.316;2024-02-14T14:34:01;100573.27;;;8.38;52.26
82311;BME280;72015;51.330;12.316;2024-02-14T14:38:23;100573.77;;;8.38;52.53
82311;BME280;72015;51.330;12.316;2024-02-14T14:42:45;100575.17;;;8.38;51.63
82311;BME280;72015;51.330;12.316;2024-02-14T14:47:07;100576.20;;;8.43;52.59
82311;BME280;72015;51.330;12.316;2024-02-14T14:51:29;100575.92;;;8.45;53.98
82311;BME280;72015;51.330;12.316;2024-02-14T14:55:54;100578.36;;;8.43;54.93
82311;BME280;72015;51.330;12.316;2024-02-14T15:00:13;100579.46;;;8.52;53.29
82311;BME280;72015;51.330;12.316;2024-02-14T15:04:35;100581.48;;;8.55;53.80
82311;BME280;72015;51.330;12.316;2024-02-14T15:08:57;100583.37;;;8.57;53.62
82311;BME280;72015;51.330;12.316;2024-02-14T15:13:19;100585.80;;;8.63;53.15
82311;BME280;72015;51.330;12.316;2024-02-14T15:17:41;100588.59;;;8.66;52.68
82311;BME280;72015;51.330;12.316;2024-02-14T15:22:03;100590.31;;;8.68;53.12
82311;BME280;72015;51.330;12.316;2024-02-14T15:26:25;100592.24;;;8.60;53.89
82311;BME280;72015;51.330;12.316;2024-02-14T15:30:47;100595.14;;;8.54;54.02
82311;BME280;72015;51.330;12.316;2024-02-14T15:35:09;100596.88;;;8.53;53.78
82311;BME280;72015;51.330;12.316;2024-02-14T15:39:31;100599.19;;;8.55;53.21
82311;BME280;72015;51.330;12.316;2024-02-14T15:43:53;100600.45;;;8.61;52.98
82311;BME280;72015;51.330;12.316;2024-02-14T15:48:15;100601.58;;;8.57;54.26
82311;BME280;72015;51.330;12.316;2024-02-14T15:52:37;100599.39;;;8.52;54.44
82311;BME280;72015;51.330;12.316;2024-02-14T15:56:59;100598.74;;;8.41;55.39
82311;BME280;72015;51.330;12.316;2024-02-14T16:01:21;100598.47;;;8.34;55.01
82311;BME280;72015;51.330;12.316;2024-02-14T16:05:43;100596.97;;;8.19;55.91
82311;BME280;72015;51.330;12.316;2024-02-14T16:10:06;100596.33;;;7.99;56.94
82311;BME280;72015;51.330;12.316;2024-02-14T16:14:27;100595.15;;;7.88;55.88
82311;BME280;72015;51.330;12.316;2024-02-14T16:18:49;100596.48;;;7.84;55.14
82311;BME280;72015;51.330;12.316;2024-02-14T16:23:11;100597.61;;;7.78;56.23
82311;BME280;72015;51.330;12.316;2024-02-14T16:27:35;100598.85;;;7.79;55.57
82311;BME280;72015;51.330;12.316;2024-02-14T16:31:55;100599.19;;;7.78;56.31
82311;BME280;72015;51.330;12.316;2024-02-14T16:36:17;100600.35;;;7.78;57.15
82311;BME280;72015;51.330;12.316;2024-02-14T16:40:39;100601.68;;;7.78;56.85
82311;BME280;72015;51.330;12.316;2024-02-14T16:45:01;100603.29;;;7.74;56.97
82311;BME280;72015;51.330;12.316;2024-02-14T16:49:23;100604.89;;;7.71;57.94
82311;BME280;72015;51.330;12.316;2024-02-14T16:53:45;100607.08;;;7.67;58.25
82311;BME280;72015;51.330;12.316;2024-02-14T16:58:07;100609.17;;;7.65;57.88
82311;BME280;72015;51.330;12.316;2024-02-14T17:02:29;100611.19;;;7.71;57.07
82311;BME280;72015;51.330;12.316;2024-02-14T17:06:54;100612.45;;;7.81;56.89
82311;BME280;72015;51.330;12.316;2024-02-14T17:11:13;100611.92;;;7.92;56.53
82311;BME280;72015;51.330;12.316;2024-02-14T17:15:35;100612.62;;;7.98;56.40
82311;BME280;72015;51.330;12.316;2024-02-14T17:19:58;100612.61;;;7.98;56.28
82311;BME280;72015;51.330;12.316;2024-02-14T17:24:19;100613.01;;;8.00;55.82
82311;BME280;72015;51.330;12.316;2024-02-14T17:28:41;100613.25;;;8.01;55.78
82311;BME280;72015;51.330;12.316;2024-02-14T17:33:06;100613.09;;;8.00;55.60
82311;BME280;72015;51.330;12.316;2024-02-14T17:37:25;100612.70;;;7.97;55.38
82311;BME280;72015;51.330;12.316;2024-02-14T17:41:47;100613.45;;;7.96;55.67
82311;BME280;72015;51.330;12.316;2024-02-14T17:46:09;100614.73;;;7.94;55.33
82311;BME280;72015;51.330;12.316;2024-02-14T17:50:31;100616.64;;;7.93;55.42
82311;BME280;72015;51.330;12.316;2024-02-14T17:54:53;100618.83;;;7.81;56.19
82311;BME280;72015;51.330;12.316;2024-02-14T17:59:15;100620.76;;;7.69;56.94
82311;BME280;72015;51.330;12.316;2024-02-14T18:03:37;100622.77;;;7.55;57.14
82311;BME280;72015;51.330;12.316;2024-02-14T18:07:59;100623.85;;;7.43;57.33
82311;BME280;72015;51.330;12.316;2024-02-14T18:12:21;100623.55;;;7.36;56.86
82311;BME280;72015;51.330;12.316;2024-02-14T18:16:43;100623.49;;;7.28;57.47
82311;BME280;72015;51.330;12.316;2024-02-14T18:21:05;100623.47;;;7.15;57.69
82311;BME280;72015;51.330;12.316;2024-02-14T18:25:27;100624.53;;;7.03;58.33
82311;BME280;72015;51.330;12.316;2024-02-14T18:29:49;100624.95;;;6.82;59.77
82311;BME280;72015;51.330;12.316;2024-02-14T18:34:11;100626.76;;;6.66;59.84
82311;BME280;72015;51.330;12.316;2024-02-14T18:38:33;100629.64;;;6.47;60.88
82311;BME280;72015;51.330;12.316;2024-02-14T18:42:55;100630.41;;;6.33;60.82
82311;BME280;72015;51.330;12.316;2024-02-14T18:47:17;100628.36;;;6.20;60.42
82311;BME280;72015;51.330;12.316;2024-02-14T18:51:39;100625.55;;;6.19;59.46
82311;BME280;72015;51.330;12.316;2024-02-14T18:56:01;100624.37;;;6.13;61.05
82311;BME280;72015;51.330;12.316;2024-02-14T19:00:23;100623.55;;;5.97;61.95
82311;BME280;72015;51.330;12.316;2024-02-14T19:04:45;100622.64;;;5.86;62.04
82311;BME280;72015;51.330;12.316;2024-02-14T19:09:07;100624.30;;;5.72;62.50
82311;BME280;72015;51.330;12.316;2024-02-14T19:13:29;100624.30;;;5.68;61.45
82311;BME280;72015;51.330;12.316;2024-02-14T19:17:51;100624.20;;;5.66;61.31
82311;BME280;72015;51.330;12.316;2024-02-14T19:22:13;100623.47;;;5.70;61.08
82311;BME280;72015;51.330;12.316;2024-02-14T19:26:35;100623.88;;;5.72;61.49
82311;BME280;72015;51.330;12.316;2024-02-14T19:30:57;100623.88;;;5.77;60.97
82311;BME280;72015;51.330;12.316;2024-02-14T19:35:19;100624.22;;;5.75;61.18
82311;BME280;72015;51.330;12.316;2024-02-14T19:39:41;100624.88;;;5.76;61.19
82311;BME280;72015;51.330;12.316;2024-02-14T19:44:03;100624.88;;;5.69;61.91
82311;BME280;72015;51.330;12.316;2024-02-14T19:48:25;100625.61;;;5.65;62.17
82311;BME280;72015;51.330;12.316;2024-02-14T19:52:47;100626.11;;;5.66;61.21
82311;BME280;72015;51.330;12.316;2024-02-14T19:57:09;100628.26;;;5.62;62.41
82311;BME280;72015;51.330;12.316;2024-02-14T20:01:31;100630.24;;;5.63;61.49
82311;BME280;72015;51.330;12.316;2024-02-14T20:05:53;100630.99;;;5.70;60.81
82311;BME280;72015;51.330;12.316;2024-02-14T20:10:16;100632.90;;;5.77;61.09
82311;BME280;72015;51.330;12.316;2024-02-14T20:14:38;100635.55;;;5.80;62.11
82311;BME280;72015;51.330;12.316;2024-02-14T20:18:59;100637.13;;;5.89;61.04
82311;BME280;72015;51.330;12.316;2024-02-14T20:23:21;100638.03;;;6.00;60.74
82311;BME280;72015;51.330;12.316;2024-02-14T20:27:43;100636.78;;;6.13;60.17
82311;BME280;72015;51.330;12.316;2024-02-14T20:32:05;100637.37;;;6.10;62.95
82311;BME280;72015;51.330;12.316;2024-02-14T20:36:27;100638.19;;;6.10;63.15
82311;BME280;72015;51.330;12.316;2024-02-14T20:40:49;100640.52;;;6.09;62.84
82311;BME280;72015;51.330;12.316;2024-02-14T20:45:12;100641.17;;;6.14;61.59
82311;BME280;72015;51.330;12.316;2024-02-14T20:49:34;100641.25;;;6.13;63.80
82311;BME280;72015;51.330;12.316;2024-02-14T20:53:56;100642.17;;;6.04;65.10
82311;BME280;72015;51.330;12.316;2024-02-14T20:58:18;100641.60;;;5.99;63.94
82311;BME280;72015;51.330;12.316;2024-02-14T21:02:40;100640.01;;;5.99;63.09
82311;BME280;72015;51.330;12.316;2024-02-14T21:07:02;100637.62;;;6.08;61.98
82311;BME280;72015;51.330;12.316;2024-02-14T21:11:24;100637.53;;;6.14;62.47
82311;BME280;72015;51.330;12.316;2024-02-14T21:15:46;100639.18;;;6.15;63.26
82311;BME280;72015;51.330;12.316;2024-02-14T21:20:08;100638.55;;;6.21;62.26
82311;BME280;72015;51.330;12.316;2024-02-14T21:24:30;100637.71;;;6.26;63.22
82311;BME280;72015;51.330;12.316;2024-02-14T21:28:52;100640.19;;;6.32;61.89
82311;BME280;72015;51.330;12.316;2024-02-14T21:33:14;100641.33;;;6.42;61.55
82311;BME280;72015;51.330;12.316;2024-02-14T21:37:36;100642.72;;;6.50;61.50
82311;BME280;72015;51.330;12.316;2024-02-14T21:41:58;100643.80;;;6.52;63.52
82311;BME280;72015;51.330;12.316;2024-02-14T21:46:20;100644.12;;;6.52;62.88
82311;BME280;72015;51.330;12.316;2024-02-14T21:50:42;100643.47;;;6.49;63.81
82311;BME280;72015;51.330;12.316;2024-02-14T21:55:04;100641.31;;;6.48;63.85
82311;BME280;72015;51.330;12.316;2024-02-14T21:59:26;100641.00;;;6.43;64.87
82311;BME280;72015;51.330;12.316;2024-02-14T22:03:48;100639.59;;;6.38;64.14
82311;BME280;72015;51.330;12.316;2024-02-14T22:08:10;100637.02;;;6.43;63.47
82311;BME280;72015;51.330;12.316;2024-02-14T22:12:32;100635.69;;;6.44;64.12
82311;BME280;72015;51.330;12.316;2024-02-14T22:16:54;100633.70;;;6.43;64.86
82311;BME280;72015;51.330;12.316;2024-02-14T22:21:16;100631.06;;;6.40;65.27
82311;BME280;72015;51.330;12.316;2024-02-14T22:25:38;100628.59;;;6.35;65.91
82311;BME280;72015;51.330;12.316;2024-02-14T22:30:00;100626.78;;;6.25;66.35
82311;BME280;72015;51.330;12.316;2024-02-14T22:34:22;100626.47;;;6.18;66.16
82311;BME280;72015;51.330;12.316;2024-02-14T22:38:44;100627.01;;;6.16;65.75
82311;BME280;72015;51.330;12.316;2024-02-14T22:43:06;100626.68;;;6.11;67.11
82311;BME280;72015;51.330;12.316;2024-02-14T22:47:28;100624.78;;;6.09;66.78
82311;BME280;72015;51.330;12.316;2024-02-14T22:51:50;100622.97;;;6.02;68.31
82311;BME280;72015;51.330;12.316;2024-02-14T22:56:12;100620.65;;;5.96;68.66
82311;BME280;72015;51.330;12.316;2024-02-14T23:00:34;100619.00;;;5.89;68.57
82311;BME280;72015;51.330;12.316;2024-02-14T23:04:56;100617.35;;;5.91;67.99